Time;durP1;ratioP1;P1;durP2;ratioP2;P2;SDS_P1;SDS_P2;PMS_P1;PMS_P2;Temp;Humidity;BMP_temperature;BMP_pressure;BME280_temperature;BME280_humidity;BME280_pressure;Samples;Min_cycle;Max_cycle;Signal;HPM_P1;HPM_P2
2022/03/19 00:01:39;;;;;;;27.67;17.33;;;;;;;;;;5039314;28;20274;-73
2022/03/19 00:04:07;;;;;;;26.97;16.17;;;;;;;;;;5039521;28;20209;-73
2022/03/19 00:06:38;;;;;;;34.33;18.97;;;;;;;;;;5038237;28;20227;-73
2022/03/19 00:09:06;;;;;;;32.03;19.33;;;;;;;;;;5038940;28;20296;-74
2022/03/19 00:11:35;;;;;;;24.17;16.07;;;;;;;;;;5039051;28;20734;-73
2022/03/19 00:14:03;;;;;;;27.10;17.03;;;;;;;;;;5039548;28;20239;-73
2022/03/19 00:16:33;;;;;;;22.17;15.90;;;;;;;;;;5039391;28;20266;-73
2022/03/19 00:19:01;;;;;;;27.93;16.60;;;;;;;;;;5039276;28;20207;-73
2022/03/19 00:21:29;;;;;;;24.23;16.87;;;;;;;;;;5038946;28;20208;-73
2022/03/19 00:23:57;;;;;;;26.10;17.27;;;;;;;;;;5038855;28;20242;-73
2022/03/19 00:26:25;;;;;;;24.57;15.70;;;;;;;;;;5039023;28;20336;-73
2022/03/19 00:28:53;;;;;;;27.30;17.53;;;;;;;;;;5038462;28;20255;-73
2022/03/19 00:31:21;;;;;;;24.10;16.17;;;;;;;;;;5038248;28;20796;-73
2022/03/19 00:33:50;;;;;;;31.23;16.30;;;;;;;;;;5038857;28;20246;-73
2022/03/19 00:36:18;;;;;;;29.53;16.50;;;;;;;;;;5038869;28;20319;-73
2022/03/19 00:38:46;;;;;;;23.80;16.20;;;;;;;;;;5038698;28;20231;-73
2022/03/19 00:41:14;;;;;;;25.10;15.97;;;;;;;;;;5038534;28;20290;-73
2022/03/19 00:43:43;;;;;;;25.93;16.07;;;;;;;;;;5038776;28;20235;-73
2022/03/19 00:46:11;;;;;;;29.13;16.40;;;;;;;;;;5038159;28;20309;-73
2022/03/19 00:48:40;;;;;;;25.40;16.13;;;;;;;;;;5038614;28;20228;-74
2022/03/19 00:51:09;;;;;;;27.10;16.50;;;;;;;;;;5038661;28;20243;-73
2022/03/19 00:53:37;;;;;;;24.43;16.10;;;;;;;;;;5036559;28;20271;-73
2022/03/19 00:56:05;;;;;;;26.00;16.67;;;;;;;;;;5038593;28;20254;-73
2022/03/19 00:58:33;;;;;;;27.37;17.50;;;;;;;;;;5037986;28;20246;-73
2022/03/19 01:01:01;;;;;;;26.73;17.07;;;;;;;;;;5037844;28;20208;-73
2022/03/19 01:03:30;;;;;;;30.60;16.50;;;;;;;;;;5037763;28;20239;-73
2022/03/19 01:05:58;;;;;;;25.77;16.67;;;;;;;;;;5038178;28;20263;-72
2022/03/19 01:08:27;;;;;;;25.00;17.07;;;;;;;;;;5038533;28;20720;-73
2022/03/19 01:10:56;;;;;;;26.40;17.47;;;;;;;;;;5038650;28;20686;-73
2022/03/19 01:13:25;;;;;;;26.10;16.70;;;;;;;;;;5038372;28;20586;-74
2022/03/19 01:15:53;;;;;;;25.20;16.33;;;;;;;;;;5037840;28;20642;-73
2022/03/19 01:18:21;;;;;;;27.87;17.53;;;;;;;;;;5038159;28;20207;-73
2022/03/19 01:20:49;;;;;;;27.23;17.33;;;;;;;;;;5037996;28;20235;-73
2022/03/19 01:23:17;;;;;;;25.47;16.57;;;;;;;;;;5037751;28;20641;-73
2022/03/19 01:25:46;;;;;;;26.40;17.23;;;;;;;;;;5037750;28;20301;-72
2022/03/19 01:28:14;;;;;;;29.97;18.03;;;;;;;;;;5037125;28;20730;-73
2022/03/19 01:30:42;;;;;;;28.00;16.37;;;;;;;;;;5037591;28;20290;-72
2022/03/19 01:33:10;;;;;;;26.93;16.80;;;;;;;;;;5037733;28;20207;-72
2022/03/19 01:35:38;;;;;;;26.40;16.20;;;;;;;;;;5037891;28;20251;-72
2022/03/19 01:38:06;;;;;;;27.90;17.87;;;;;;;;;;5037811;28;20265;-73
2022/03/19 01:40:34;;;;;;;22.53;15.97;;;;;;;;;;5037863;28;20231;-72
2022/03/19 01:43:04;;;;;;;25.90;16.87;;;;;;;;;;5037651;28;20282;-72
2022/03/19 01:45:32;;;;;;;28.87;17.37;;;;;;;;;;5037297;28;20702;-73
2022/03/19 01:48:00;;;;;;;29.07;17.30;;;;;;;;;;5037298;28;20262;-72
2022/03/19 01:50:28;;;;;;;25.83;17.27;;;;;;;;;;5037626;28;20314;-73
2022/03/19 01:52:56;;;;;;;31.30;19.10;;;;;;;;;;5037425;28;20219;-72
2022/03/19 01:55:25;;;;;;;29.50;18.10;;;;;;;;;;5037598;28;20274;-72
2022/03/19 01:57:54;;;;;;;28.83;16.67;;;;;;;;;;5037172;28;20223;-71
2022/03/19 02:00:24;;;;;;;29.23;16.70;;;;;;;;;;5037003;28;20895;-72
2022/03/19 02:02:53;;;;;;;27.13;16.87;;;;;;;;;;5037260;28;20286;-72
2022/03/19 02:05:22;;;;;;;28.80;17.90;;;;;;;;;;5037425;28;20234;-72
2022/03/19 02:07:51;;;;;;;27.93;17.67;;;;;;;;;;5037509;28;20207;-73
2022/03/19 02:10:19;;;;;;;27.87;17.33;;;;;;;;;;5037242;28;20263;-72
2022/03/19 02:12:49;;;;;;;29.53;17.60;;;;;;;;;;5037295;28;20645;-73
2022/03/19 02:15:17;;;;;;;26.63;17.57;;;;;;;;;;5039608;28;20786;-73
2022/03/19 02:17:46;;;;;;;30.23;18.33;;;;;;;;;;5041169;28;20243;-73
2022/03/19 02:20:15;;;;;;;28.83;17.30;;;;;;;;;;5041452;28;20214;-72
2022/03/19 02:25:34;;;;;;;30.63;18.13;;;;;;;;;;5041189;28;20287;-73
2022/03/19 02:25:35;;;;;;;27.83;17.13;;;;;;;;;;5041193;28;20287;-73
2022/03/19 02:28:04;;;;;;;30.00;18.17;;;;;;;;;;5040582;28;20214;-73
2022/03/19 02:30:32;;;;;;;25.67;17.10;;;;;;;;;;5040201;28;20749;-72
2022/03/19 02:33:00;;;;;;;28.73;17.37;;;;;;;;;;5040917;28;20586;-72
2022/03/19 02:35:28;;;;;;;27.83;18.53;;;;;;;;;;5040776;28;20277;-72
2022/03/19 02:37:56;;;;;;;28.37;17.80;;;;;;;;;;5040633;28;20203;-72
2022/03/19 02:40:24;;;;;;;34.87;18.30;;;;;;;;;;5041369;28;20263;-73
2022/03/19 02:42:55;;;;;;;31.00;17.17;;;;;;;;;;5041105;28;20207;-72
2022/03/19 02:45:24;;;;;;;28.63;17.07;;;;;;;;;;5040323;28;20673;-72
2022/03/19 02:47:58;;;;;;;27.80;17.63;;;;;;;;;;5040598;28;20303;-72
2022/03/19 02:50:28;;;;;;;27.77;17.33;;;;;;;;;;5039165;28;20258;-73
2022/03/19 02:52:57;;;;;;;25.93;17.50;;;;;;;;;;5036253;28;20242;-73
2022/03/19 02:55:25;;;;;;;28.73;17.80;;;;;;;;;;5040285;28;20311;-72
2022/03/19 02:57:55;;;;;;;28.03;17.90;;;;;;;;;;5040177;28;20706;-72
2022/03/19 03:00:23;;;;;;;29.67;18.13;;;;;;;;;;5040179;28;20242;-73
2022/03/19 03:02:51;;;;;;;31.03;17.70;;;;;;;;;;5040437;28;20243;-73
2022/03/19 03:05:19;;;;;;;27.13;16.93;;;;;;;;;;5040173;28;20227;-73
2022/03/19 03:07:47;;;;;;;26.93;17.20;;;;;;;;;;5040117;28;20264;-72
2022/03/19 03:10:16;;;;;;;27.53;17.50;;;;;;;;;;5040228;28;20310;-72
2022/03/19 03:12:44;;;;;;;27.93;17.43;;;;;;;;;;5034852;28;20674;-71
2022/03/19 03:15:13;;;;;;;25.60;16.50;;;;;;;;;;5040148;28;20246;-75
2022/03/19 03:17:41;;;;;;;25.90;16.73;;;;;;;;;;5040654;28;20204;-73
2022/03/19 03:20:10;;;;;;;24.60;16.77;;;;;;;;;;5040333;28;20231;-75
2022/03/19 03:22:42;;;;;;;25.47;16.87;;;;;;;;;;5039826;28;20242;-73
2022/03/19 03:25:10;;;;;;;29.37;16.90;;;;;;;;;;5039515;28;20208;-72
2022/03/19 03:27:39;;;;;;;29.67;17.60;;;;;;;;;;5039118;28;20204;-73
2022/03/19 03:30:07;;;;;;;27.90;17.93;;;;;;;;;;5039578;28;20259;-72
2022/03/19 03:32:37;;;;;;;27.50;17.83;;;;;;;;;;5040134;28;20235;-72
2022/03/19 03:35:05;;;;;;;33.87;18.47;;;;;;;;;;5040063;28;20207;-72
2022/03/19 03:37:33;;;;;;;27.03;16.83;;;;;;;;;;5039747;28;20686;-72
2022/03/19 03:40:01;;;;;;;27.87;17.87;;;;;;;;;;5039624;28;20294;-72
2022/03/19 03:42:29;;;;;;;25.20;16.17;;;;;;;;;;5039921;28;20272;-73
2022/03/19 03:44:58;;;;;;;25.57;16.83;;;;;;;;;;5039523;28;20207;-72
2022/03/19 03:47:27;;;;;;;26.93;17.20;;;;;;;;;;5039501;28;20249;-72
2022/03/19 03:49:56;;;;;;;28.60;17.57;;;;;;;;;;5039328;28;20766;-72
2022/03/19 03:52:24;;;;;;;31.77;17.50;;;;;;;;;;5039989;28;20246;-72
2022/03/19 03:54:52;;;;;;;30.00;17.10;;;;;;;;;;5039334;28;20273;-72
2022/03/19 03:57:20;;;;;;;28.70;17.83;;;;;;;;;;5039238;28;20231;-73
2022/03/19 03:59:50;;;;;;;29.83;17.33;;;;;;;;;;5039646;28;20291;-74
2022/03/19 04:02:18;;;;;;;29.20;17.33;;;;;;;;;;5039152;28;20674;-72
2022/03/19 04:04:46;;;;;;;32.10;18.57;;;;;;;;;;5039334;28;20207;-72
2022/03/19 04:07:16;;;;;;;27.03;17.07;;;;;;;;;;5039440;28;20254;-72
2022/03/19 04:09:44;;;;;;;33.53;18.07;;;;;;;;;;5038899;28;20215;-72
2022/03/19 04:12:12;;;;;;;31.00;17.53;;;;;;;;;;5039209;28;20302;-72
2022/03/19 04:14:40;;;;;;;30.23;17.87;;;;;;;;;;5039143;28;20207;-72
2022/03/19 04:17:08;;;;;;;28.77;17.83;;;;;;;;;;5038918;28;20255;-73
2022/03/19 04:19:36;;;;;;;30.03;17.37;;;;;;;;;;5039196;28;20299;-72
2022/03/19 04:22:04;;;;;;;29.53;18.17;;;;;;;;;;5039136;28;20264;-72
2022/03/19 04:24:34;;;;;;;26.43;17.10;;;;;;;;;;5039025;28;20250;-72
2022/03/19 04:27:02;;;;;;;31.07;17.13;;;;;;;;;;5039115;28;20262;-73
2022/03/19 04:29:30;;;;;;;31.50;17.97;;;;;;;;;;5039359;28;20211;-72
2022/03/19 04:31:58;;;;;;;28.00;17.03;;;;;;;;;;5038527;28;20270;-72
2022/03/19 04:34:26;;;;;;;35.53;19.17;;;;;;;;;;5038483;28;20214;-72
2022/03/19 04:36:54;;;;;;;31.77;17.30;;;;;;;;;;5038701;28;20269;-71
2022/03/19 04:39:22;;;;;;;31.07;18.83;;;;;;;;;;5037654;28;20274;-72
2022/03/19 04:41:52;;;;;;;28.30;17.50;;;;;;;;;;5038424;28;20635;-72
2022/03/19 04:44:20;;;;;;;31.60;18.20;;;;;;;;;;5038811;28;20239;-72
2022/03/19 04:46:48;;;;;;;28.13;17.40;;;;;;;;;;5037908;28;20767;-73
2022/03/19 04:49:16;;;;;;;27.07;17.90;;;;;;;;;;5038614;28;20231;-73
2022/03/19 04:51:44;;;;;;;28.80;18.57;;;;;;;;;;5038104;28;20263;-73
2022/03/19 04:54:12;;;;;;;34.80;17.87;;;;;;;;;;5038307;28;20235;-73
2022/03/19 04:56:40;;;;;;;28.27;17.93;;;;;;;;;;5037986;28;20250;-73
2022/03/19 04:59:11;;;;;;;29.97;17.70;;;;;;;;;;5038519;28;20250;-73
2022/03/19 05:01:40;;;;;;;35.83;18.03;;;;;;;;;;5038172;28;20235;-73
2022/03/19 05:04:08;;;;;;;32.30;18.53;;;;;;;;;;5038004;28;20207;-73
2022/03/19 05:06:36;;;;;;;30.57;17.43;;;;;;;;;;5038161;28;20318;-73
2022/03/19 05:11:50;;;;;;;28.50;17.10;;;;;;;;;;5037906;28;20223;-72
2022/03/19 05:14:20;;;;;;;34.33;17.67;;;;;;;;;;5037946;28;20234;-76
2022/03/19 05:16:47;;;;;;;31.33;17.40;;;;;;;;;;5037009;28;20790;-75
2022/03/19 05:19:15;;;;;;;27.97;17.40;;;;;;;;;;5037647;28;20203;-76
2022/03/19 05:21:43;;;;;;;30.67;18.10;;;;;;;;;;5034977;28;20230;-77
2022/03/19 05:24:11;;;;;;;32.17;18.43;;;;;;;;;;5037596;28;20286;-75
2022/03/19 05:26:39;;;;;;;31.40;20.00;;;;;;;;;;5037365;28;20247;-75
2022/03/19 05:29:11;;;;;;;33.73;19.23;;;;;;;;;;5037531;28;20238;-75
2022/03/19 05:31:44;;;;;;;31.17;20.00;;;;;;;;;;5037296;28;20218;-74
2022/03/19 05:34:31;;;;;;;34.83;19.07;;;;;;;;;;5037398;28;20686;-73
2022/03/19 05:36:59;;;;;;;32.17;20.03;;;;;;;;;;5037339;28;20266;-74
2022/03/19 05:39:27;;;;;;;33.33;19.67;;;;;;;;;;5037931;28;20206;-74
2022/03/19 05:41:55;;;;;;;32.37;17.93;;;;;;;;;;5035621;28;20230;-74
2022/03/19 05:44:24;;;;;;;36.53;19.47;;;;;;;;;;5035120;28;20237;-76
2022/03/19 05:46:53;;;;;;;31.97;19.97;;;;;;;;;;5036425;28;20675;-75
2022/03/19 05:49:21;;;;;;;29.93;17.83;;;;;;;;;;5035697;28;20690;-75
2022/03/19 05:51:49;;;;;;;34.63;19.37;;;;;;;;;;5037164;28;20668;-75
2022/03/19 05:54:17;;;;;;;34.30;20.17;;;;;;;;;;5037186;28;20734;-75
2022/03/19 05:56:45;;;;;;;34.43;18.90;;;;;;;;;;5037344;28;20266;-75
2022/03/19 05:59:13;;;;;;;34.80;19.17;;;;;;;;;;5037448;28;20754;-75
2022/03/19 06:01:42;;;;;;;29.43;17.87;;;;;;;;;;5037624;28;20239;-75
2022/03/19 06:04:12;;;;;;;30.57;18.53;;;;;;;;;;5038120;28;20207;-75
2022/03/19 06:06:40;;;;;;;33.50;18.93;;;;;;;;;;5038531;28;20231;-75
2022/03/19 06:09:08;;;;;;;27.27;17.67;;;;;;;;;;5038105;28;20239;-76
2022/03/19 06:11:36;;;;;;;34.40;19.40;;;;;;;;;;5036881;28;20761;-74
2022/03/19 06:14:04;;;;;;;34.93;18.20;;;;;;;;;;5037331;28;20282;-74
2022/03/19 06:16:32;;;;;;;33.77;18.27;;;;;;;;;;5036944;28;20270;-76
2022/03/19 06:19:00;;;;;;;34.73;19.00;;;;;;;;;;5038115;28;20203;-76
2022/03/19 06:21:30;;;;;;;30.73;18.13;;;;;;;;;;5033474;28;20282;-75
2022/03/19 06:23:58;;;;;;;34.83;18.63;;;;;;;;;;5036805;28;20234;-71
2022/03/19 06:26:26;;;;;;;28.50;17.30;;;;;;;;;;5034356;28;20251;-75
2022/03/19 06:28:54;;;;;;;29.80;18.00;;;;;;;;;;5037301;28;20286;-74
2022/03/19 06:31:22;;;;;;;30.97;18.13;;;;;;;;;;5036838;28;20259;-74
2022/03/19 06:33:50;;;;;;;28.83;17.73;;;;;;;;;;5037421;28;20504;-73
2022/03/19 06:39:05;;;;;;;27.63;17.23;;;;;;;;;;5037047;28;20208;-75
2022/03/19 06:41:33;;;;;;;33.87;18.80;;;;;;;;;;5036971;28;20633;-73
2022/03/19 06:44:01;;;;;;;30.17;17.87;;;;;;;;;;5037320;28;20299;-73
2022/03/19 06:46:29;;;;;;;25.40;17.07;;;;;;;;;;5036626;28;20267;-73
2022/03/19 06:48:57;;;;;;;31.93;17.77;;;;;;;;;;5036863;28;20857;-73
2022/03/19 06:51:25;;;;;;;28.57;16.83;;;;;;;;;;5034411;28;20315;-73
2022/03/19 06:53:53;;;;;;;24.83;16.17;;;;;;;;;;5034433;28;20821;-73
2022/03/19 06:56:23;;;;;;;26.73;16.43;;;;;;;;;;5036088;28;20885;-74
2022/03/19 06:58:56;;;;;;;31.13;17.60;;;;;;;;;;5036168;28;20683;-73
2022/03/19 07:01:24;;;;;;;30.07;17.77;;;;;;;;;;5037039;28;20322;-74
2022/03/19 07:03:52;;;;;;;25.30;16.97;;;;;;;;;;5039766;28;20203;-73
2022/03/19 07:06:20;;;;;;;25.47;16.70;;;;;;;;;;5039639;28;20583;-73
2022/03/19 07:09:08;;;;;;;28.90;17.27;;;;;;;;;;5038884;28;20208;-74
2022/03/19 07:11:38;;;;;;;30.00;16.03;;;;;;;;;;5039560;28;20729;-75
2022/03/19 07:14:10;;;;;;;28.50;17.70;;;;;;;;;;5039617;28;20219;-76
2022/03/19 07:16:38;;;;;;;25.47;16.60;;;;;;;;;;5039497;28;20223;-75
2022/03/19 07:19:07;;;;;;;25.97;16.17;;;;;;;;;;5039954;28;20251;-75
2022/03/19 07:21:35;;;;;;;23.87;15.43;;;;;;;;;;5039716;28;20671;-75
2022/03/19 07:24:12;;;;;;;25.33;16.33;;;;;;;;;;5039901;28;20234;-75
2022/03/19 07:26:41;;;;;;;25.57;16.10;;;;;;;;;;5040753;28;20231;-75
2022/03/19 07:29:10;;;;;;;26.63;16.77;;;;;;;;;;5039802;28;20743;-75
2022/03/19 07:31:38;;;;;;;24.83;16.50;;;;;;;;;;5039260;28;20367;-75
2022/03/19 07:34:06;;;;;;;26.67;16.10;;;;;;;;;;5039548;28;20212;-75
2022/03/19 07:36:34;;;;;;;30.07;19.33;;;;;;;;;;5039772;28;20257;-75
2022/03/19 07:39:02;;;;;;;27.97;18.47;;;;;;;;;;5040121;28;20242;-75
2022/03/19 07:41:48;;;;;;;27.43;18.17;;;;;;;;;;5039971;28;20250;-75
2022/03/19 07:44:18;;;;;;;29.10;16.70;;;;;;;;;;5039752;28;20215;-76
2022/03/19 07:46:46;;;;;;;29.40;19.03;;;;;;;;;;5039283;28;20330;-75
2022/03/19 07:49:14;;;;;;;31.40;17.67;;;;;;;;;;5031475;28;20211;-77
2022/03/19 07:51:42;;;;;;;28.93;17.40;;;;;;;;;;5038256;28;20227;-75
2022/03/19 07:54:10;;;;;;;31.13;18.70;;;;;;;;;;5038829;28;20200;-77
2022/03/19 07:56:38;;;;;;;28.77;18.10;;;;;;;;;;5038682;28;20262;-75
2022/03/19 07:59:06;;;;;;;29.40;18.40;;;;;;;;;;5042119;28;20290;-77
2022/03/19 08:01:35;;;;;;;34.47;18.57;;;;;;;;;;5039170;28;20228;-74
2022/03/19 08:04:08;;;;;;;32.30;19.57;;;;;;;;;;5039165;28;20206;-73
2022/03/19 08:06:37;;;;;;;28.67;18.93;;;;;;;;;;5039020;28;20227;-73
2022/03/19 08:09:06;;;;;;;30.73;18.93;;;;;;;;;;5038949;28;20262;-75
2022/03/19 08:11:34;;;;;;;35.27;20.40;;;;;;;;;;5032115;28;20199;-74
2022/03/19 08:14:02;;;;;;;30.57;18.63;;;;;;;;;;5038801;28;20269;-76
2022/03/19 08:16:30;;;;;;;31.63;19.53;;;;;;;;;;5030877;28;20255;-77
2022/03/19 08:19:00;;;;;;;31.50;20.47;;;;;;;;;;5038663;28;20211;-77
2022/03/19 08:21:28;;;;;;;35.70;20.37;;;;;;;;;;5038630;28;20211;-76
2022/03/19 08:23:56;;;;;;;32.40;19.87;;;;;;;;;;5038858;28;20235;-76
2022/03/19 08:26:24;;;;;;;31.93;19.87;;;;;;;;;;5038744;28;20228;-76
2022/03/19 08:28:53;;;;;;;35.97;21.40;;;;;;;;;;5038477;28;20246;-76
2022/03/19 08:31:21;;;;;;;31.33;19.83;;;;;;;;;;5037524;28;20630;-77
2022/03/19 08:33:49;;;;;;;33.10;20.93;;;;;;;;;;5025503;28;20227;-76
2022/03/19 08:36:19;;;;;;;33.23;21.00;;;;;;;;;;5038355;28;20872;-77
2022/03/19 08:41:32;;;;;;;33.40;21.07;;;;;;;;;;5038337;28;20234;-77
2022/03/19 08:44:01;;;;;;;32.57;21.03;;;;;;;;;;5038693;28;20229;-77
2022/03/19 08:46:29;;;;;;;31.83;21.13;;;;;;;;;;5038852;28;20278;-76
2022/03/19 08:48:57;;;;;;;33.43;20.50;;;;;;;;;;5038801;28;20574;-76
2022/03/19 08:51:42;;;;;;;34.80;20.83;;;;;;;;;;5038290;28;20290;-76
2022/03/19 08:54:11;;;;;;;33.13;20.37;;;;;;;;;;5038523;28;20714;-76
2022/03/19 08:56:39;;;;;;;34.93;22.70;;;;;;;;;;5038848;28;20281;-75
2022/03/19 08:59:08;;;;;;;36.17;22.17;;;;;;;;;;5038143;28;20640;-76
2022/03/19 09:01:36;;;;;;;33.13;21.90;;;;;;;;;;5037504;28;20235;-76
2022/03/19 09:04:04;;;;;;;35.97;20.77;;;;;;;;;;5038403;28;20211;-76
2022/03/19 09:06:34;;;;;;;32.43;21.70;;;;;;;;;;5037768;28;20223;-75
2022/03/19 09:09:03;;;;;;;30.90;22.27;;;;;;;;;;5025829;28;20223;-75
2022/03/19 09:11:31;;;;;;;40.40;22.30;;;;;;;;;;5038303;28;20294;-76
2022/03/19 09:14:00;;;;;;;37.43;21.77;;;;;;;;;;5038061;28;20310;-75
2022/03/19 09:16:28;;;;;;;40.50;21.30;;;;;;;;;;5027139;28;20254;-75
2022/03/19 09:18:56;;;;;;;32.33;21.53;;;;;;;;;;5037513;28;20215;-74
2022/03/19 09:21:24;;;;;;;35.73;21.60;;;;;;;;;;5037507;28;20639;-75
2022/03/19 09:23:54;;;;;;;35.87;22.07;;;;;;;;;;5036849;28;20291;-76
2022/03/19 09:26:21;;;;;;;30.83;20.90;;;;;;;;;;5038019;28;20652;-76
2022/03/19 09:28:50;;;;;;;34.07;21.07;;;;;;;;;;5038389;28;20242;-75
2022/03/19 09:31:18;;;;;;;36.47;21.30;;;;;;;;;;5039624;28;20234;-75
2022/03/19 09:33:47;;;;;;;34.93;21.43;;;;;;;;;;5039145;28;20234;-75
2022/03/19 09:36:15;;;;;;;32.53;20.70;;;;;;;;;;5038578;28;20246;-76
2022/03/19 09:38:43;;;;;;;32.87;21.80;;;;;;;;;;5038696;28;20218;-75
2022/03/19 09:41:13;;;;;;;35.53;21.33;;;;;;;;;;5038050;28;20679;-75
2022/03/19 09:43:47;;;;;;;36.13;22.80;;;;;;;;;;5037122;28;20736;-75
2022/03/19 09:46:16;;;;;;;32.67;21.17;;;;;;;;;;5036266;28;20274;-75
2022/03/19 09:48:44;;;;;;;33.00;22.13;;;;;;;;;;5037510;28;20211;-75
2022/03/19 09:51:12;;;;;;;33.43;21.57;;;;;;;;;;5036595;28;20284;-76
2022/03/19 09:53:41;;;;;;;33.80;20.73;;;;;;;;;;5033683;28;20291;-75
2022/03/19 09:56:30;;;;;;;33.20;22.17;;;;;;;;;;5037396;28;20231;-75
2022/03/19 09:58:58;;;;;;;34.80;21.00;;;;;;;;;;5038014;28;20243;-75
2022/03/19 10:01:26;;;;;;;34.83;21.47;;;;;;;;;;5037915;28;20207;-76
2022/03/19 10:04:00;;;;;;;41.23;23.27;;;;;;;;;;5025745;28;20210;-75
2022/03/19 10:09:17;;;;;;;33.90;20.60;;;;;;;;;;5038512;28;20242;-76
2022/03/19 10:11:50;;;;;;;34.23;21.97;;;;;;;;;;5037817;28;20294;-76
2022/03/19 10:14:22;;;;;;;37.23;20.17;;;;;;;;;;5038029;28;20677;-76
2022/03/19 10:16:51;;;;;;;32.40;21.20;;;;;;;;;;5037518;28;20222;-76
2022/03/19 10:19:19;;;;;;;39.63;22.47;;;;;;;;;;5037426;28;20622;-76
2022/03/19 10:21:48;;;;;;;35.13;22.47;;;;;;;;;;5034547;28;20238;-76
2022/03/19 10:24:26;;;;;;;33.13;21.03;;;;;;;;;;5024732;28;20200;-76
2022/03/19 10:26:57;;;;;;;33.03;21.80;;;;;;;;;;5037850;28;20653;-76
2022/03/19 10:29:29;;;;;;;34.20;20.57;;;;;;;;;;5037270;28;20262;-76
2022/03/19 10:32:03;;;;;;;36.73;22.87;;;;;;;;;;5037012;28;20685;-74
2022/03/19 10:34:34;;;;;;;36.53;21.83;;;;;;;;;;5035272;28;20215;-76
2022/03/19 10:37:02;;;;;;;32.10;19.83;;;;;;;;;;5038396;28;20617;-77
2022/03/19 10:39:31;;;;;;;30.87;21.60;;;;;;;;;;5041098;28;20278;-76
2022/03/19 10:42:14;;;;;;;37.53;22.83;;;;;;;;;;5041390;28;20218;-77
2022/03/19 10:44:42;;;;;;;36.57;22.23;;;;;;;;;;5041034;28;20219;-75
2022/03/19 10:47:10;;;;;;;33.40;21.80;;;;;;;;;;5040353;28;20282;-75
2022/03/19 10:49:43;;;;;;;33.60;22.03;;;;;;;;;;5037745;28;20234;-74
2022/03/19 10:52:15;;;;;;;34.33;21.33;;;;;;;;;;5050447;28;20199;-76
2022/03/19 10:54:44;;;;;;;35.03;20.90;;;;;;;;;;5059548;28;20246;-77
2022/03/19 10:57:13;;;;;;;35.63;21.73;;;;;;;;;;5057874;28;20306;-77
2022/03/19 10:59:41;;;;;;;39.10;21.57;;;;;;;;;;5055146;28;20282;-78
2022/03/19 11:02:11;;;;;;;39.80;22.63;;;;;;;;;;5055515;28;20204;-77
2022/03/19 11:04:40;;;;;;;30.80;21.57;;;;;;;;;;5057411;28;20289;-77
2022/03/19 11:07:10;;;;;;;34.43;22.17;;;;;;;;;;5052293;28;20229;-77
2022/03/19 11:09:39;;;;;;;34.50;21.97;;;;;;;;;;5054187;28;20230;-77
2022/03/19 11:12:09;;;;;;;36.83;23.47;;;;;;;;;;5052310;28;20299;-77
2022/03/19 11:14:40;;;;;;;37.67;22.67;;;;;;;;;;5039576;28;20224;-78
2022/03/19 11:17:27;;;;;;;36.17;22.40;;;;;;;;;;5037341;28;20251;-77
2022/03/19 11:19:56;;;;;;;35.67;21.40;;;;;;;;;;5039371;28;20208;-77
2022/03/19 11:22:25;;;;;;;38.33;22.10;;;;;;;;;;5039120;28;20200;-76
2022/03/19 11:24:57;;;;;;;38.20;21.73;;;;;;;;;;5039672;28;20235;-77
2022/03/19 11:27:25;;;;;;;36.57;22.03;;;;;;;;;;5039913;28;20246;-77
2022/03/19 11:29:58;;;;;;;38.27;22.23;;;;;;;;;;5039710;28;20290;-75
2022/03/19 11:32:26;;;;;;;43.77;22.63;;;;;;;;;;5039203;28;20235;-76
2022/03/19 11:34:57;;;;;;;34.93;20.57;;;;;;;;;;5039267;28;20310;-75
2022/03/19 11:37:25;;;;;;;38.93;21.40;;;;;;;;;;5039084;28;20203;-76
2022/03/19 11:40:04;;;;;;;36.57;21.63;;;;;;;;;;5039161;28;20235;-75
2022/03/19 11:42:33;;;;;;;31.00;19.27;;;;;;;;;;5039034;28;20204;-75
2022/03/19 11:45:10;;;;;;;33.10;21.57;;;;;;;;;;5038390;28;20583;-75
2022/03/19 11:47:39;;;;;;;40.03;22.60;;;;;;;;;;5037091;28;20311;-75
2022/03/19 11:50:20;;;;;;;36.87;22.50;;;;;;;;;;5036528;28;20227;-76
2022/03/19 11:53:06;;;;;;;36.70;22.23;;;;;;;;;;5036287;28;20282;-75
2022/03/19 11:55:38;;;;;;;38.93;23.47;;;;;;;;;;5037055;28;20330;-75
2022/03/19 11:58:09;;;;;;;32.67;20.50;;;;;;;;;;5039760;28;20291;-76
2022/03/19 12:00:41;;;;;;;33.40;22.57;;;;;;;;;;5039171;28;20271;-76
2022/03/19 12:03:12;;;;;;;36.67;21.87;;;;;;;;;;5039608;28;20264;-75
2022/03/19 12:05:42;;;;;;;36.87;21.20;;;;;;;;;;5039123;28;20234;-73
2022/03/19 12:08:12;;;;;;;33.50;21.47;;;;;;;;;;5032481;28;20238;-75
2022/03/19 12:10:59;;;;;;;37.17;21.93;;;;;;;;;;5039898;28;20216;-75
2022/03/19 12:13:47;;;;;;;32.33;20.47;;;;;;;;;;5036952;28;20211;-74
2022/03/19 12:16:37;;;;;;;35.93;21.20;;;;;;;;;;5040032;28;20230;-73
2022/03/19 12:19:06;;;;;;;37.50;22.03;;;;;;;;;;5052745;28;20254;-73
2022/03/19 12:21:38;;;;;;;32.27;21.97;;;;;;;;;;5050017;28;20264;-74
2022/03/19 12:24:23;;;;;;;37.40;20.83;;;;;;;;;;5045151;28;20231;-73
2022/03/19 12:26:52;;;;;;;38.67;21.90;;;;;;;;;;5037738;28;20227;-73
2022/03/19 12:29:20;;;;;;;31.77;18.83;;;;;;;;;;5036029;28;20260;-73
2022/03/19 12:31:50;;;;;;;30.57;19.87;;;;;;;;;;5039025;28;20240;-74
2022/03/19 12:34:20;;;;;;;35.40;21.37;;;;;;;;;;5039129;28;20207;-71
2022/03/19 12:36:48;;;;;;;36.97;20.77;;;;;;;;;;5038894;28;20262;-73
2022/03/19 12:39:16;;;;;;;33.27;20.67;;;;;;;;;;5038464;28;20852;-71
2022/03/19 12:41:45;;;;;;;36.90;22.00;;;;;;;;;;5039643;28;20243;-68
2022/03/19 12:44:35;;;;;;;29.43;21.03;;;;;;;;;;5039150;28;20249;-70
2022/03/19 12:47:07;;;;;;;33.10;21.23;;;;;;;;;;5038769;28;20247;-70
2022/03/19 12:49:35;;;;;;;32.67;19.17;;;;;;;;;;5038598;28;20243;-69
2022/03/19 12:52:08;;;;;;;34.73;21.00;;;;;;;;;;5032650;28;20239;-70
2022/03/19 12:54:36;;;;;;;31.20;21.73;;;;;;;;;;5037427;28;20262;-75
2022/03/19 12:57:10;;;;;;;34.90;21.60;;;;;;;;;;5038206;28;20220;-74
2022/03/19 12:59:46;;;;;;;32.97;20.40;;;;;;;;;;5050269;28;20235;-74
2022/03/19 13:02:17;;;;;;;33.87;21.03;;;;;;;;;;5054996;28;20631;-74
2022/03/19 13:04:46;;;;;;;28.97;19.20;;;;;;;;;;5057114;28;20576;-74
2022/03/19 13:07:14;;;;;;;31.53;19.43;;;;;;;;;;5055452;28;20219;-74
2022/03/19 13:09:42;;;;;;;33.80;20.30;;;;;;;;;;5055151;28;20286;-74
2022/03/19 13:12:15;;;;;;;28.40;18.97;;;;;;;;;;5054458;28;20214;-74
2022/03/19 13:14:48;;;;;;;33.37;20.53;;;;;;;;;;5056518;28;20207;-74
2022/03/19 13:17:18;;;;;;;29.17;18.73;;;;;;;;;;5055029;28;20701;-74
2022/03/19 13:19:46;;;;;;;30.63;19.43;;;;;;;;;;5051809;28;20226;-74
2022/03/19 13:22:19;;;;;;;29.70;19.03;;;;;;;;;;5049297;28;20227;-74
2022/03/19 13:24:49;;;;;;;34.43;19.00;;;;;;;;;;5056954;28;20199;-74
2022/03/19 13:27:17;;;;;;;27.07;19.03;;;;;;;;;;5055896;28;20272;-75
2022/03/19 13:29:45;;;;;;;32.53;19.57;;;;;;;;;;5056335;28;20289;-74
2022/03/19 13:32:14;;;;;;;35.47;19.00;;;;;;;;;;5053361;28;20272;-74
2022/03/19 13:34:46;;;;;;;27.93;18.43;;;;;;;;;;5055636;28;20233;-74
2022/03/19 13:37:15;;;;;;;30.27;18.93;;;;;;;;;;5054591;28;20261;-74
2022/03/19 13:39:46;;;;;;;32.20;19.10;;;;;;;;;;5055954;28;20675;-74
2022/03/19 13:42:14;;;;;;;33.07;20.03;;;;;;;;;;5054993;28;20578;-74
2022/03/19 13:44:44;;;;;;;34.97;21.40;;;;;;;;;;5053427;28;20241;-74
2022/03/19 13:47:13;;;;;;;37.90;20.97;;;;;;;;;;5050848;28;20321;-74
2022/03/19 13:49:47;;;;;;;33.27;20.27;;;;;;;;;;5055765;28;20282;-74
2022/03/19 13:52:28;;;;;;;41.63;22.17;;;;;;;;;;5054883;28;20215;-73
2022/03/19 13:54:57;;;;;;;32.43;20.00;;;;;;;;;;5057033;28;20285;-73
2022/03/19 13:57:30;;;;;;;32.83;20.93;;;;;;;;;;5055193;28;20230;-73
2022/03/19 14:00:11;;;;;;;32.10;19.20;;;;;;;;;;5052231;28;20689;-73
2022/03/19 14:02:40;;;;;;;32.90;19.40;;;;;;;;;;5051034;28;20558;-74
2022/03/19 14:05:11;;;;;;;34.63;19.43;;;;;;;;;;5055168;28;20198;-74
2022/03/19 14:07:40;;;;;;;31.07;19.07;;;;;;;;;;5056520;28;20258;-74
2022/03/19 14:10:08;;;;;;;30.90;19.33;;;;;;;;;;5057381;28;20282;-74
2022/03/19 14:12:38;;;;;;;33.73;19.60;;;;;;;;;;5061412;28;20226;-73
2022/03/19 14:15:07;;;;;;;32.13;19.73;;;;;;;;;;5042856;28;20238;-73
2022/03/19 14:17:43;;;;;;;31.67;18.67;;;;;;;;;;5038857;28;20204;-71
2022/03/19 14:20:12;;;;;;;28.57;18.77;;;;;;;;;;5043516;28;20229;-72
2022/03/19 14:22:41;;;;;;;26.50;16.77;;;;;;;;;;5058836;28;20227;-72
2022/03/19 14:25:10;;;;;;;33.43;17.87;;;;;;;;;;5051890;28;20689;-72
2022/03/19 14:27:38;;;;;;;29.83;18.63;;;;;;;;;;5057392;28;20268;-72
2022/03/19 14:30:20;;;;;;;26.80;17.33;;;;;;;;;;5054512;28;20222;-72
2022/03/19 14:32:48;;;;;;;30.33;17.43;;;;;;;;;;5061180;28;20233;-72
2022/03/19 14:35:46;;;;;;;29.00;18.07;;;;;;;;;;5059101;28;20301;-72
2022/03/19 14:38:17;;;;;;;30.13;18.00;;;;;;;;;;4988062;28;20201;-74
2022/03/19 14:40:45;;;;;;;34.87;17.30;;;;;;;;;;5042706;28;20223;-73
2022/03/19 14:43:15;;;;;;;28.40;17.10;;;;;;;;;;5041457;28;20227;-72